createdAt,value
2022-11-20T00:02:57.268Z,6.93
2022-11-20T00:07:58.557Z,7.27
2022-11-20T00:12:59.852Z,6.55
2022-11-20T00:18:01.077Z,6.80
2022-11-20T00:23:02.302Z,7.65
2022-11-20T00:28:03.622Z,7.95
2022-11-20T00:33:04.851Z,7.30
2022-11-20T00:38:06.057Z,6.93
2022-11-20T00:43:07.361Z,6.57
2022-11-20T00:48:08.624Z,6.60
2022-11-20T00:53:09.859Z,7.05
2022-11-20T00:58:14.316Z,6.53
2022-11-20T01:03:16.479Z,7.03
2022-11-20T01:08:17.720Z,7.10
2022-11-20T01:13:37.981Z,6.63
2022-11-20T01:18:40.381Z,7.00
2022-11-20T01:23:42.498Z,6.77
2022-11-20T01:28:44.118Z,6.75
2022-11-20T01:33:47.461Z,6.63
2022-11-20T01:38:48.912Z,6.10
2022-11-20T01:43:50.135Z,5.85
2022-11-20T01:48:55.030Z,5.47
2022-11-20T01:53:58.053Z,4.70
2022-11-20T01:59:01.761Z,4.50
2022-11-20T02:04:03.480Z,4.60
2022-11-20T02:09:04.862Z,4.55
2022-11-20T02:14:06.278Z,3.77
2022-11-20T02:19:10.541Z,3.80
2022-11-20T02:24:14.738Z,4.38
2022-11-20T02:29:21.858Z,3.80
2022-11-20T02:34:23.349Z,3.97
2022-11-20T02:39:26.067Z,3.70
2022-11-20T02:44:27.365Z,3.72
2022-11-20T02:49:28.773Z,3.42
2022-11-20T02:54:29.995Z,3.53
2022-11-20T02:59:31.294Z,3.55
2022-11-20T03:04:32.532Z,3.37
2022-11-20T03:09:33.762Z,3.50
2022-11-20T03:14:35.396Z,3.15
2022-11-20T03:19:36.762Z,3.40
2022-11-20T03:24:37.998Z,3.53
2022-11-20T03:29:39.283Z,3.27
2022-11-20T03:34:40.498Z,3.20
2022-11-20T03:39:41.801Z,3.22
2022-11-20T03:44:43.066Z,3.03
2022-11-20T03:49:44.338Z,2.72
2022-11-20T03:54:45.626Z,3.23
2022-11-20T03:59:46.893Z,2.90
2022-11-20T04:04:48.173Z,3.00
2022-11-20T04:09:49.546Z,2.57
2022-11-20T04:14:50.778Z,2.80
2022-11-20T04:19:52.007Z,3.13
2022-11-20T04:24:53.257Z,2.97
2022-11-20T04:29:54.552Z,2.70
2022-11-20T04:34:55.825Z,2.70
2022-11-20T04:39:57.065Z,2.60
2022-11-20T04:44:58.470Z,2.67
2022-11-20T04:49:59.803Z,2.80
2022-11-20T04:55:01.140Z,2.50
2022-11-20T05:00:02.439Z,3.10
2022-11-20T05:05:04.111Z,2.70
2022-11-20T05:10:05.589Z,2.33
2022-11-20T05:15:06.987Z,2.33
2022-11-20T05:20:08.610Z,2.40
2022-11-20T05:25:09.839Z,2.27
2022-11-20T05:30:11.359Z,1.95
2022-11-20T05:35:12.631Z,1.90
2022-11-20T05:40:14.091Z,1.83
2022-11-20T05:45:15.415Z,1.55
2022-11-20T05:50:16.769Z,1.80
2022-11-20T05:55:18.050Z,1.58
2022-11-20T06:00:19.288Z,1.53
2022-11-20T06:05:20.547Z,1.50
2022-11-20T06:10:21.824Z,1.60
2022-11-20T06:15:23.063Z,1.60
2022-11-20T06:20:24.327Z,1.25
2022-11-20T06:25:25.629Z,1.60
2022-11-20T06:30:26.870Z,1.30
2022-11-20T06:35:28.153Z,1.40
2022-11-20T06:40:29.389Z,1.40
2022-11-20T06:45:30.655Z,1.40
2022-11-20T06:50:31.933Z,1.53
2022-11-20T06:55:33.288Z,1.38
2022-11-20T07:00:34.636Z,1.40
2022-11-20T07:05:36.452Z,1.23
2022-11-20T07:10:37.769Z,1.38
2022-11-20T07:15:39.028Z,1.47
2022-11-20T07:20:40.313Z,1.60
2022-11-20T07:25:41.617Z,1.30
2022-11-20T07:30:42.850Z,1.60
2022-11-20T07:35:44.119Z,1.70
2022-11-20T07:40:45.362Z,1.47
2022-11-20T07:45:46.663Z,1.50
2022-11-20T07:50:47.950Z,1.00
2022-11-20T07:55:49.396Z,1.33
2022-11-20T08:00:50.757Z,1.80
2022-11-20T08:05:52.071Z,1.67
2022-11-20T08:10:53.358Z,1.20
2022-11-20T08:15:54.648Z,1.35
2022-11-20T08:20:55.981Z,1.30
2022-11-20T08:25:57.282Z,1.40
2022-11-20T08:30:59.711Z,1.40
2022-11-20T08:36:01.922Z,1.50
2022-11-20T08:41:22.706Z,1.55
2022-11-20T08:46:25.686Z,1.63
2022-11-20T08:51:27.112Z,1.67
2022-11-20T08:56:28.428Z,1.73
2022-11-20T09:01:30.557Z,1.80
2022-11-20T09:06:32.006Z,2.30
2022-11-20T09:11:33.499Z,2.87
2022-11-20T09:16:34.778Z,2.20
2022-11-20T09:21:36.050Z,2.40
2022-11-20T09:26:37.311Z,2.40
2022-11-20T09:31:38.699Z,1.98
2022-11-20T09:36:39.973Z,2.40
2022-11-20T09:41:44.123Z,1.90
2022-11-20T09:46:49.954Z,2.00
2022-11-20T09:51:59.255Z,2.22
2022-11-20T09:57:01.696Z,2.83
2022-11-20T10:02:09.351Z,3.07
2022-11-20T10:07:32.627Z,2.83
2022-11-20T10:12:51.775Z,2.40
2022-11-20T10:17:58.978Z,2.67
2022-11-20T10:23:03.261Z,3.67
2022-11-20T10:28:04.530Z,2.50
2022-11-20T10:33:09.834Z,2.80
2022-11-20T10:38:15.792Z,2.50
2022-11-20T10:43:18.601Z,2.58
2022-11-20T10:48:26.898Z,2.97
2022-11-20T10:53:47.209Z,2.40
2022-11-20T10:59:11.430Z,2.55
2022-11-20T11:04:36.394Z,2.50
2022-11-20T11:09:40.754Z,2.67
2022-11-20T11:14:49.302Z,2.53
2022-11-20T11:20:00.495Z,2.43
2022-11-20T11:25:01.907Z,2.13
2022-11-20T11:30:14.163Z,2.43
2022-11-20T11:35:33.712Z,2.20
2022-11-20T11:40:37.059Z,2.30
2022-11-20T11:45:38.299Z,2.43
2022-11-20T11:50:48.945Z,1.90
2022-11-20T11:56:10.712Z,2.30
2022-11-20T12:01:31.483Z,2.30
2022-11-20T12:06:35.507Z,2.10
2022-11-20T12:11:56.614Z,1.70
2022-11-20T12:16:58.563Z,1.73
2022-11-20T12:22:11.933Z,1.90
2022-11-20T12:27:32.073Z,1.52
2022-11-20T12:32:39.046Z,1.67
2022-11-20T12:37:53.198Z,1.80
2022-11-20T12:43:33.484Z,1.60
2022-11-20T12:48:34.757Z,1.63
2022-11-20T12:53:38.882Z,1.55
2022-11-20T12:58:50.195Z,1.60
2022-11-20T13:03:54.332Z,1.20
2022-11-20T13:08:56.912Z,1.70
2022-11-20T13:14:00.971Z,1.73
2022-11-20T13:19:03.499Z,1.63
2022-11-20T13:24:07.824Z,1.45
2022-11-20T13:29:12.002Z,1.10
2022-11-20T13:34:15.487Z,1.95
2022-11-20T13:39:25.240Z,1.50
2022-11-20T13:44:40.042Z,1.95
2022-11-20T13:49:45.916Z,1.13
2022-11-20T13:54:52.551Z,1.17
2022-11-20T14:00:12.472Z,1.17
2022-11-20T14:05:23.665Z,1.47
2022-11-20T14:10:31.316Z,0.90
2022-11-20T14:15:34.251Z,1.15
2022-11-20T14:20:35.530Z,0.90
2022-11-20T14:25:37.219Z,1.13
2022-11-20T14:30:45.587Z,2.10
2022-11-20T14:35:48.839Z,1.20
2022-11-20T14:40:50.207Z,1.38
2022-11-20T14:46:02.263Z,1.03
2022-11-20T14:51:03.502Z,1.20
2022-11-20T14:56:04.880Z,1.30
2022-11-20T15:01:07.425Z,1.08
2022-11-20T15:06:11.530Z,1.10
2022-11-20T15:11:19.333Z,1.10
2022-11-20T15:16:21.837Z,1.10
2022-11-20T15:21:23.354Z,1.53
2022-11-20T15:26:26.469Z,1.27
2022-11-20T15:31:27.723Z,0.98
2022-11-20T15:36:29.018Z,1.10
2022-11-20T15:41:30.326Z,1.23
2022-11-20T15:46:35.583Z,1.10
2022-11-20T15:51:38.276Z,1.35
2022-11-20T15:56:39.676Z,1.20
2022-11-20T16:01:41.233Z,1.30
2022-11-20T16:06:42.506Z,1.80
2022-11-20T16:11:43.728Z,1.67
2022-11-20T16:16:44.992Z,1.25
2022-11-20T16:21:46.297Z,1.85
2022-11-20T16:26:47.553Z,1.57
2022-11-20T16:31:48.838Z,1.90
2022-11-20T16:36:50.119Z,2.17
2022-11-20T16:41:51.394Z,1.60
2022-11-20T16:46:52.714Z,3.50
2022-11-20T16:51:53.960Z,3.80
2022-11-20T16:56:55.256Z,1.50
2022-11-20T17:01:56.540Z,2.10
2022-11-20T17:06:57.972Z,1.42
2022-11-20T17:11:59.367Z,2.10
2022-11-20T17:17:00.687Z,2.10
2022-11-20T17:22:01.993Z,2.45
2022-11-20T17:27:03.291Z,2.20
2022-11-20T17:32:04.614Z,2.97
2022-11-20T17:37:05.942Z,2.22
2022-11-20T17:42:26.149Z,1.90
2022-11-20T17:47:27.413Z,1.40
2022-11-20T17:52:28.716Z,1.77
2022-11-20T17:57:48.619Z,1.80
2022-11-20T18:02:49.883Z,1.50
2022-11-20T18:07:52.366Z,2.30
2022-11-20T18:12:54.336Z,1.00
2022-11-20T18:17:55.863Z,3.40
2022-11-20T18:22:57.301Z,1.40
2022-11-20T18:27:58.589Z,1.60
2022-11-20T18:32:59.929Z,1.20
2022-11-20T18:38:01.392Z,1.45
2022-11-20T18:43:21.763Z,1.13
2022-11-20T18:48:23.100Z,1.10
2022-11-20T18:53:24.386Z,2.63
2022-11-20T18:58:27.819Z,1.40
2022-11-20T19:03:29.118Z,1.95
2022-11-20T19:08:30.398Z,2.10
2022-11-20T19:13:32.417Z,2.90
2022-11-20T19:18:33.731Z,2.72
2022-11-20T19:23:35.142Z,2.00
2022-11-20T19:28:36.963Z,1.95
2022-11-20T19:33:38.183Z,2.20
2022-11-20T19:38:43.669Z,1.60
2022-11-20T19:43:49.783Z,1.38
2022-11-20T19:48:51.261Z,1.50
2022-11-20T19:53:52.951Z,1.20
2022-11-20T19:58:54.755Z,1.20
2022-11-20T20:03:57.601Z,1.30
2022-11-20T20:09:00.265Z,1.55
2022-11-20T20:14:02.469Z,1.00
2022-11-20T20:19:04.453Z,1.23
2022-11-20T20:24:06.051Z,1.30
2022-11-20T20:29:07.378Z,1.20
2022-11-20T20:34:08.750Z,1.23
2022-11-20T20:39:10.699Z,1.05
2022-11-20T20:44:30.563Z,1.08
2022-11-20T20:49:33.454Z,1.23
2022-11-20T20:54:34.772Z,1.20
2022-11-20T20:59:36.010Z,1.30
2022-11-20T21:04:37.278Z,1.30
2022-11-20T21:09:38.567Z,1.50
2022-11-20T21:14:39.863Z,1.07
2022-11-20T21:19:41.124Z,1.00
2022-11-20T21:24:42.903Z,1.17
2022-11-20T21:29:44.123Z,1.10
2022-11-20T21:34:45.511Z,1.30
2022-11-20T21:39:51.790Z,1.00
2022-11-20T21:44:53.024Z,0.90
2022-11-20T21:49:54.258Z,1.17
2022-11-20T21:54:55.620Z,1.00
2022-11-20T21:59:56.828Z,1.00
2022-11-20T22:04:58.101Z,1.37
2022-11-20T22:09:59.345Z,0.90
2022-11-20T22:15:00.587Z,1.10
2022-11-20T22:20:01.852Z,1.02
2022-11-20T22:25:03.187Z,1.20
2022-11-20T22:30:04.677Z,1.00
2022-11-20T22:35:06.018Z,0.90
2022-11-20T22:40:07.742Z,0.70
2022-11-20T22:45:09.285Z,0.90
2022-11-20T22:50:10.559Z,1.02
2022-11-20T22:55:16.063Z,1.10
2022-11-20T23:00:17.951Z,1.10
2022-11-20T23:05:19.209Z,0.80
2022-11-20T23:10:20.491Z,1.30
2022-11-20T23:15:21.708Z,0.80
2022-11-20T23:20:23.052Z,0.90
2022-11-20T23:25:24.359Z,0.90
2022-11-20T23:30:25.693Z,0.70
2022-11-20T23:35:26.938Z,0.82
2022-11-20T23:40:28.207Z,1.02
2022-11-20T23:45:29.548Z,1.13
2022-11-20T23:50:30.865Z,0.77
2022-11-20T23:55:32.271Z,0.70
